LOWWEPGD

Guest
Details From LOWW - Wien Schwechat
To EPGD - Lech Walesa
Flight Number -
Tags Generated
Created
Modified
Stats Distance 383 nm / 709 km
Max Altitude 0 ft / 0 m
Waypoints 3
Social Downloads 6
Likes 0
Share VATSIM

Download

Looking for another format? Having issues loading an existing format? Contact us
Advertisement - Login to hide

Notes

Generated

Route

LOWW GIGSA EPGD

ID Type Via Altitude Latitude Longitude Leg Dist Tot Dist Heading (true) Name
O LOWW APT - 0 ft / 0 m 48.11978˚ 16.57818˚ - 0 nm - -
GIGSA FIX - 0 ft / 0 m 54.13111˚ 18.33417˚ 367 nm 367 nm 10° / 11° -
O EPGD APT - 0 ft / 0 m 54.38107˚ 18.45205˚ 15 nm 382 nm 15° / 15° -

Altitude Profile

Advertisement - Login to hide

Weather


0- 5 10 15 20 25 30 35+ Temperature / ° C

Clouds and Precipitation
Forecast for 2018-05-23 06:00 UTC. Updated 2 hours ago

Ground ~20,000 ft ~40,000 ft Winds

LOWW

Details ICAO LOWW (VIE)
Name Wien Schwechat
Region Austria
Timezone Europe/Vienna (UTC+2.0)
Stats Elevation 600 ft / 183 m (AMSL)
Location 48.110068° 16.569637°
Runways 2
Magnetic Variation 4.308° E

METAR

LOWW 230720Z 12009KT 080V150 CAVOK 20/15 Q1018 NOSIG

Decode

TAF

TAF LOWW 230515Z 2306/2412 14008KT CAVOK TX26/2314Z TN15/2403Z TEMPO 2313/2318 9999 FEW050CB SCT300 PROB30 TEMPO 2315/2318 5000 TSRA BKN050 SCT050CB TEMPO 2318/2403 VRB10G20KT 3000 TSRA BKN030 SCT030CB FM240300 06005KT 9999 SCT015 BKN030 TEMPO 2403/2407 8000 SHRA BKN015 FEW050TCU BECMG 2409/2411 FEW050CB SCT300

Decode

Departure Runways

ID Width Length Bearing (true) Bearing (mag) Surface Threshold Offset Overrun Length
11 148 ft / 45 m 11,457 ft / 3,492 m 115.99° 111.68° Asphalt 0 ft / 0 m 0 ft / 0 m
16 148 ft / 45 m 11,811 ft / 3,600 m 164.23° 159.92° Asphalt 0 ft / 0 m 33 ft / 10 m
29 148 ft / 45 m 11,457 ft / 3,492 m 296.03° 291.72° Asphalt 0 ft / 0 m 0 ft / 0 m
34 148 ft / 45 m 11,811 ft / 3,600 m 344.24° 339.93° Asphalt 0 ft / 0 m 0 ft / 0 m

EPGD

Details ICAO EPGD (GDN)
Name LECH WALESA
Region Poland
Timezone Europe/Warsaw (UTC+2.0)
Stats Elevation 489 ft / 149 m (AMSL)
Location 54.376167° 18.471884°
Runways 1
Magnetic Variation 5.511° E

METAR

EPGD 230730Z 10005KT 040V140 9999 FEW015 17/10 Q1023

Decode

TAF

TAF TAF EPGD 230530Z 2306/2406 VRB02KT CAVOK BECMG 2309/2311 03010KT BECMG 2318/2320 VRB05KT

Decode

Destination Runways

ID Width Length Bearing (true) Bearing (mag) Surface Threshold Offset Overrun Length
11 148 ft / 45 m 9,158 ft / 2,791 m 112.96° 107.45° Asphalt 0 ft / 0 m 0 ft / 0 m
29 148 ft / 45 m 9,158 ft / 2,791 m 293.00° 287.49° Asphalt 0 ft / 0 m 0 ft / 0 m

Approach Navaids

Runway Type Ident Frequency Range Bearing (true) Bearing (mag) Slope Elevation
29 Localiser IGDA 110.30 MHz 18 nm / 33 km 292.96° 287.45° - 489 ft / 149 m (AMSL)
29 Glidescope IGDA 110.30 MHz 10 nm / 19 km 292.98° 287.47° 2.90° 489 ft / 149 m (AMSL)
29 DME IGDA 110.30 MHz 18 nm / 33 km - - - 492 ft / 150 m (AMSL)

Popular Alternatives